sensor_id;sensor_type;location;lat;lon;timestamp;P1;durP1;ratioP1;P2;durP2;ratioP2
9771;SDS011;4925;52.588;13.370;2022-09-30T00:01:45;12.43;;;9.47;;
9771;SDS011;4925;52.588;13.370;2022-09-30T00:04:12;12.77;;;9.77;;
9771;SDS011;4925;52.588;13.370;2022-09-30T00:06:39;12.87;;;9.57;;
9771;SDS011;4925;52.588;13.370;2022-09-30T00:09:05;12.63;;;8.90;;
9771;SDS011;4925;52.588;13.370;2022-09-30T00:11:32;10.93;;;8.77;;
9771;SDS011;4925;52.588;13.370;2022-09-30T00:13:59;14.77;;;10.03;;
9771;SDS011;4925;52.588;13.370;2022-09-30T00:16:27;14.00;;;9.77;;
9771;SDS011;4925;52.588;13.370;2022-09-30T00:18:55;13.07;;;8.83;;
9771;SDS011;4925;52.588;13.370;2022-09-30T00:21:22;11.87;;;8.87;;
9771;SDS011;4925;52.588;13.370;2022-09-30T00:23:49;10.87;;;8.87;;
9771;SDS011;4925;52.588;13.370;2022-09-30T00:26:16;11.70;;;9.00;;
9771;SDS011;4925;52.588;13.370;2022-09-30T00:28:44;13.40;;;8.83;;
9771;SDS011;4925;52.588;13.370;2022-09-30T00:31:14;10.13;;;8.10;;
9771;SDS011;4925;52.588;13.370;2022-09-30T00:33:41;12.63;;;9.30;;
9771;SDS011;4925;52.588;13.370;2022-09-30T00:36:07;11.07;;;8.63;;
9771;SDS011;4925;52.588;13.370;2022-09-30T00:38:33;11.17;;;8.60;;
9771;SDS011;4925;52.588;13.370;2022-09-30T00:41:01;10.57;;;8.67;;
9771;SDS011;4925;52.588;13.370;2022-09-30T00:43:38;11.67;;;8.33;;
9771;SDS011;4925;52.588;13.370;2022-09-30T00:46:18;10.63;;;8.73;;
9771;SDS011;4925;52.588;13.370;2022-09-30T00:48:44;9.77;;;7.93;;
9771;SDS011;4925;52.588;13.370;2022-09-30T00:51:17;10.87;;;8.10;;
9771;SDS011;4925;52.588;13.370;2022-09-30T00:54:04;11.23;;;8.63;;
9771;SDS011;4925;52.588;13.370;2022-09-30T00:56:36;9.37;;;8.13;;
9771;SDS011;4925;52.588;13.370;2022-09-30T01:01:35;11.50;;;8.17;;
9771;SDS011;4925;52.588;13.370;2022-09-30T01:04:24;10.30;;;7.90;;
9771;SDS011;4925;52.588;13.370;2022-09-30T01:06:50;11.47;;;7.97;;
9771;SDS011;4925;52.588;13.370;2022-09-30T01:09:16;9.77;;;7.83;;
9771;SDS011;4925;52.588;13.370;2022-09-30T01:11:43;10.37;;;7.87;;
9771;SDS011;4925;52.588;13.370;2022-09-30T01:14:13;9.57;;;7.60;;
9771;SDS011;4925;52.588;13.370;2022-09-30T01:27:42;10.43;;;6.90;;
9771;SDS011;4925;52.588;13.370;2022-09-30T01:30:20;9.57;;;7.13;;
9771;SDS011;4925;52.588;13.370;2022-09-30T01:33:12;11.70;;;7.73;;
9771;SDS011;4925;52.588;13.370;2022-09-30T01:36:17;9.80;;;7.30;;
9771;SDS011;4925;52.588;13.370;2022-09-30T01:38:59;9.77;;;7.23;;
9771;SDS011;4925;52.588;13.370;2022-09-30T01:41:44;11.37;;;7.53;;
9771;SDS011;4925;52.588;13.370;2022-09-30T01:44:31;11.07;;;8.20;;
9771;SDS011;4925;52.588;13.370;2022-09-30T01:47:12;9.17;;;7.73;;
9771;SDS011;4925;52.588;13.370;2022-09-30T01:49:47;10.40;;;7.63;;
9771;SDS011;4925;52.588;13.370;2022-09-30T01:52:21;10.67;;;6.90;;
9771;SDS011;4925;52.588;13.370;2022-09-30T01:54:54;8.33;;;7.20;;
9771;SDS011;4925;52.588;13.370;2022-09-30T02:00:06;9.00;;;7.17;;
9771;SDS011;4925;52.588;13.370;2022-09-30T02:02:45;13.83;;;6.60;;
9771;SDS011;4925;52.588;13.370;2022-09-30T02:05:59;9.37;;;7.13;;
9771;SDS011;4925;52.588;13.370;2022-09-30T02:10:46;10.97;;;7.07;;
9771;SDS011;4925;52.588;13.370;2022-09-30T02:13:35;9.57;;;6.90;;
9771;SDS011;4925;52.588;13.370;2022-09-30T02:16:05;10.73;;;7.17;;
9771;SDS011;4925;52.588;13.370;2022-09-30T02:18:46;12.40;;;7.53;;
9771;SDS011;4925;52.588;13.370;2022-09-30T02:21:19;9.80;;;7.33;;
9771;SDS011;4925;52.588;13.370;2022-09-30T02:23:51;8.93;;;6.73;;
9771;SDS011;4925;52.588;13.370;2022-09-30T02:26:23;9.93;;;7.70;;
9771;SDS011;4925;52.588;13.370;2022-09-30T02:28:54;10.67;;;6.80;;
9771;SDS011;4925;52.588;13.370;2022-09-30T02:31:30;8.83;;;7.20;;
9771;SDS011;4925;52.588;13.370;2022-09-30T02:34:05;11.10;;;7.07;;
9771;SDS011;4925;52.588;13.370;2022-09-30T02:36:46;10.87;;;7.23;;
9771;SDS011;4925;52.588;13.370;2022-09-30T02:39:28;10.07;;;7.70;;
9771;SDS011;4925;52.588;13.370;2022-09-30T02:42:15;11.40;;;7.47;;
9771;SDS011;4925;52.588;13.370;2022-09-30T02:44:45;11.53;;;7.47;;
9771;SDS011;4925;52.588;13.370;2022-09-30T02:47:15;10.13;;;7.17;;
9771;SDS011;4925;52.588;13.370;2022-09-30T02:50:01;10.73;;;6.80;;
9771;SDS011;4925;52.588;13.370;2022-09-30T02:52:36;11.77;;;7.47;;
9771;SDS011;4925;52.588;13.370;2022-09-30T02:55:30;10.57;;;7.03;;
9771;SDS011;4925;52.588;13.370;2022-09-30T02:58:07;10.80;;;7.07;;
9771;SDS011;4925;52.588;13.370;2022-09-30T03:00:36;11.10;;;7.17;;
9771;SDS011;4925;52.588;13.370;2022-09-30T03:03:10;9.80;;;6.73;;
9771;SDS011;4925;52.588;13.370;2022-09-30T03:05:41;9.90;;;6.70;;
9771;SDS011;4925;52.588;13.370;2022-09-30T03:08:09;8.10;;;6.30;;
9771;SDS011;4925;52.588;13.370;2022-09-30T03:10:35;7.57;;;6.07;;
9771;SDS011;4925;52.588;13.370;2022-09-30T03:13:06;11.37;;;7.60;;
9771;SDS011;4925;52.588;13.370;2022-09-30T03:15:57;11.57;;;7.23;;
9771;SDS011;4925;52.588;13.370;2022-09-30T03:18:41;10.50;;;7.23;;
9771;SDS011;4925;52.588;13.370;2022-09-30T03:21:25;9.00;;;6.83;;
9771;SDS011;4925;52.588;13.370;2022-09-30T03:27:20;10.70;;;7.33;;
9771;SDS011;4925;52.588;13.370;2022-09-30T03:30:08;8.47;;;6.50;;
9771;SDS011;4925;52.588;13.370;2022-09-30T03:32:43;8.47;;;6.90;;
9771;SDS011;4925;52.588;13.370;2022-09-30T03:38:38;9.10;;;6.33;;
9771;SDS011;4925;52.588;13.370;2022-09-30T03:41:57;11.40;;;7.00;;
9771;SDS011;4925;52.588;13.370;2022-09-30T03:44:37;11.00;;;7.73;;
9771;SDS011;4925;52.588;13.370;2022-09-30T03:47:07;11.37;;;7.40;;
9771;SDS011;4925;52.588;13.370;2022-09-30T03:49:37;11.17;;;6.87;;
9771;SDS011;4925;52.588;13.370;2022-09-30T03:52:08;17.40;;;7.47;;
9771;SDS011;4925;52.588;13.370;2022-09-30T03:54:43;12.07;;;7.50;;
9771;SDS011;4925;52.588;13.370;2022-09-30T03:57:19;12.67;;;8.47;;
9771;SDS011;4925;52.588;13.370;2022-09-30T03:59:45;12.00;;;7.80;;
9771;SDS011;4925;52.588;13.370;2022-09-30T04:02:10;14.67;;;7.10;;
9771;SDS011;4925;52.588;13.370;2022-09-30T04:04:40;11.90;;;8.17;;
9771;SDS011;4925;52.588;13.370;2022-09-30T04:07:09;9.20;;;7.23;;
9771;SDS011;4925;52.588;13.370;2022-09-30T04:09:38;10.73;;;7.33;;
9771;SDS011;4925;52.588;13.370;2022-09-30T04:12:04;14.77;;;7.43;;
9771;SDS011;4925;52.588;13.370;2022-09-30T04:14:30;11.37;;;7.70;;
9771;SDS011;4925;52.588;13.370;2022-09-30T04:16:56;12.03;;;7.40;;
9771;SDS011;4925;52.588;13.370;2022-09-30T04:19:22;10.60;;;7.03;;
9771;SDS011;4925;52.588;13.370;2022-09-30T04:21:49;10.27;;;7.03;;
9771;SDS011;4925;52.588;13.370;2022-09-30T04:24:16;9.50;;;6.63;;
9771;SDS011;4925;52.588;13.370;2022-09-30T04:26:43;15.20;;;7.80;;
9771;SDS011;4925;52.588;13.370;2022-09-30T04:29:08;8.73;;;6.40;;
9771;SDS011;4925;52.588;13.370;2022-09-30T04:31:34;10.37;;;7.03;;
9771;SDS011;4925;52.588;13.370;2022-09-30T04:34:00;9.23;;;6.47;;
9771;SDS011;4925;52.588;13.370;2022-09-30T04:36:25;11.37;;;6.90;;
9771;SDS011;4925;52.588;13.370;2022-09-30T04:38:51;11.70;;;7.93;;
9771;SDS011;4925;52.588;13.370;2022-09-30T04:41:17;9.97;;;7.13;;
9771;SDS011;4925;52.588;13.370;2022-09-30T04:43:43;16.60;;;7.03;;
9771;SDS011;4925;52.588;13.370;2022-09-30T04:46:10;10.43;;;7.13;;
9771;SDS011;4925;52.588;13.370;2022-09-30T04:48:37;12.17;;;7.73;;
9771;SDS011;4925;52.588;13.370;2022-09-30T04:51:02;13.00;;;7.73;;
9771;SDS011;4925;52.588;13.370;2022-09-30T04:53:28;21.00;;;8.17;;
9771;SDS011;4925;52.588;13.370;2022-09-30T04:55:58;9.97;;;6.77;;
9771;SDS011;4925;52.588;13.370;2022-09-30T04:58:25;10.10;;;7.27;;
9771;SDS011;4925;52.588;13.370;2022-09-30T05:00:58;13.30;;;7.50;;
9771;SDS011;4925;52.588;13.370;2022-09-30T05:03:28;13.57;;;7.30;;
9771;SDS011;4925;52.588;13.370;2022-09-30T05:05:54;11.33;;;7.10;;
9771;SDS011;4925;52.588;13.370;2022-09-30T05:08:20;10.67;;;6.90;;
9771;SDS011;4925;52.588;13.370;2022-09-30T05:10:56;7.93;;;6.23;;
9771;SDS011;4925;52.588;13.370;2022-09-30T05:13:24;14.97;;;7.40;;
9771;SDS011;4925;52.588;13.370;2022-09-30T05:15:54;8.87;;;6.50;;
9771;SDS011;4925;52.588;13.370;2022-09-30T05:18:19;8.90;;;6.87;;
9771;SDS011;4925;52.588;13.370;2022-09-30T05:20:49;15.40;;;7.77;;
9771;SDS011;4925;52.588;13.370;2022-09-30T05:23:16;13.37;;;7.17;;
9771;SDS011;4925;52.588;13.370;2022-09-30T05:25:42;12.40;;;7.70;;
9771;SDS011;4925;52.588;13.370;2022-09-30T05:28:08;9.90;;;7.27;;
9771;SDS011;4925;52.588;13.370;2022-09-30T05:30:34;12.80;;;8.23;;
9771;SDS011;4925;52.588;13.370;2022-09-30T05:32:59;15.50;;;7.80;;
9771;SDS011;4925;52.588;13.370;2022-09-30T05:35:25;11.37;;;8.07;;
9771;SDS011;4925;52.588;13.370;2022-09-30T05:37:51;11.63;;;7.47;;
9771;SDS011;4925;52.588;13.370;2022-09-30T05:40:16;15.93;;;7.60;;
9771;SDS011;4925;52.588;13.370;2022-09-30T05:42:42;13.80;;;8.00;;
9771;SDS011;4925;52.588;13.370;2022-09-30T05:45:11;8.47;;;7.43;;
9771;SDS011;4925;52.588;13.370;2022-09-30T05:47:37;10.47;;;8.03;;
9771;SDS011;4925;52.588;13.370;2022-09-30T05:50:03;11.03;;;7.53;;
9771;SDS011;4925;52.588;13.370;2022-09-30T05:52:29;9.40;;;7.53;;
9771;SDS011;4925;52.588;13.370;2022-09-30T05:54:55;13.77;;;7.97;;
9771;SDS011;4925;52.588;13.370;2022-09-30T05:57:24;11.93;;;8.10;;
9771;SDS011;4925;52.588;13.370;2022-09-30T05:59:54;10.23;;;7.60;;
9771;SDS011;4925;52.588;13.370;2022-09-30T06:02:22;19.17;;;9.90;;
9771;SDS011;4925;52.588;13.370;2022-09-30T06:04:48;9.07;;;7.53;;
9771;SDS011;4925;52.588;13.370;2022-09-30T06:07:14;12.93;;;8.17;;
9771;SDS011;4925;52.588;13.370;2022-09-30T06:09:40;13.00;;;7.67;;
9771;SDS011;4925;52.588;13.370;2022-09-30T06:12:06;11.97;;;7.60;;
9771;SDS011;4925;52.588;13.370;2022-09-30T06:14:32;12.87;;;8.13;;
9771;SDS011;4925;52.588;13.370;2022-09-30T06:16:59;11.70;;;7.80;;
9771;SDS011;4925;52.588;13.370;2022-09-30T06:19:25;11.60;;;7.93;;
9771;SDS011;4925;52.588;13.370;2022-09-30T06:21:55;13.30;;;8.10;;
9771;SDS011;4925;52.588;13.370;2022-09-30T06:24:21;14.30;;;8.13;;
9771;SDS011;4925;52.588;13.370;2022-09-30T06:26:46;12.37;;;8.80;;
9771;SDS011;4925;52.588;13.370;2022-09-30T06:29:12;12.77;;;9.43;;
9771;SDS011;4925;52.588;13.370;2022-09-30T06:31:38;17.80;;;8.83;;
9771;SDS011;4925;52.588;13.370;2022-09-30T06:34:04;15.00;;;8.63;;
9771;SDS011;4925;52.588;13.370;2022-09-30T06:36:30;14.47;;;8.97;;
9771;SDS011;4925;52.588;13.370;2022-09-30T06:38:58;10.77;;;7.93;;
9771;SDS011;4925;52.588;13.370;2022-09-30T06:41:25;15.87;;;8.43;;
9771;SDS011;4925;52.588;13.370;2022-09-30T06:43:53;18.60;;;8.80;;
9771;SDS011;4925;52.588;13.370;2022-09-30T06:46:19;12.50;;;9.50;;
9771;SDS011;4925;52.588;13.370;2022-09-30T06:48:48;14.90;;;9.60;;
9771;SDS011;4925;52.588;13.370;2022-09-30T06:51:18;16.43;;;9.03;;
9771;SDS011;4925;52.588;13.370;2022-09-30T06:53:44;15.97;;;10.23;;
9771;SDS011;4925;52.588;13.370;2022-09-30T06:56:10;16.57;;;8.43;;
9771;SDS011;4925;52.588;13.370;2022-09-30T06:58:35;12.33;;;7.90;;
9771;SDS011;4925;52.588;13.370;2022-09-30T07:01:02;15.57;;;9.13;;
9771;SDS011;4925;52.588;13.370;2022-09-30T07:03:30;13.37;;;8.73;;
9771;SDS011;4925;52.588;13.370;2022-09-30T07:05:58;16.37;;;7.97;;
9771;SDS011;4925;52.588;13.370;2022-09-30T07:08:26;13.57;;;8.20;;
9771;SDS011;4925;52.588;13.370;2022-09-30T07:10:59;13.47;;;8.10;;
9771;SDS011;4925;52.588;13.370;2022-09-30T07:13:26;16.97;;;8.80;;
9771;SDS011;4925;52.588;13.370;2022-09-30T07:15:52;11.43;;;7.97;;
9771;SDS011;4925;52.588;13.370;2022-09-30T07:18:20;15.43;;;9.47;;
9771;SDS011;4925;52.588;13.370;2022-09-30T07:20:47;10.53;;;8.17;;
9771;SDS011;4925;52.588;13.370;2022-09-30T07:23:13;14.87;;;7.93;;
9771;SDS011;4925;52.588;13.370;2022-09-30T07:25:39;14.53;;;7.73;;
9771;SDS011;4925;52.588;13.370;2022-09-30T07:28:17;14.50;;;8.83;;
9771;SDS011;4925;52.588;13.370;2022-09-30T07:30:43;15.03;;;9.43;;
9771;SDS011;4925;52.588;13.370;2022-09-30T07:33:09;13.53;;;9.20;;
9771;SDS011;4925;52.588;13.370;2022-09-30T07:35:39;12.57;;;8.03;;
9771;SDS011;4925;52.588;13.370;2022-09-30T07:38:08;12.10;;;8.17;;
9771;SDS011;4925;52.588;13.370;2022-09-30T07:40:34;10.87;;;8.30;;
9771;SDS011;4925;52.588;13.370;2022-09-30T07:42:59;9.07;;;7.33;;
9771;SDS011;4925;52.588;13.370;2022-09-30T07:45:25;11.10;;;7.80;;
9771;SDS011;4925;52.588;13.370;2022-09-30T07:47:51;11.23;;;7.57;;
9771;SDS011;4925;52.588;13.370;2022-09-30T07:50:17;10.80;;;8.03;;
9771;SDS011;4925;52.588;13.370;2022-09-30T07:52:42;10.47;;;7.20;;
9771;SDS011;4925;52.588;13.370;2022-09-30T07:55:08;10.50;;;7.70;;
9771;SDS011;4925;52.588;13.370;2022-09-30T07:57:33;10.00;;;7.57;;
9771;SDS011;4925;52.588;13.370;2022-09-30T07:59:59;9.27;;;7.03;;
9771;SDS011;4925;52.588;13.370;2022-09-30T08:02:25;8.83;;;6.93;;
9771;SDS011;4925;52.588;13.370;2022-09-30T08:04:51;9.17;;;6.53;;
9771;SDS011;4925;52.588;13.370;2022-09-30T08:07:16;47.43;;;28.63;;
9771;SDS011;4925;52.588;13.370;2022-09-30T08:09:43;56.67;;;34.47;;
9771;SDS011;4925;52.588;13.370;2022-09-30T08:12:09;28.83;;;18.53;;
9771;SDS011;4925;52.588;13.370;2022-09-30T08:14:34;11.43;;;7.53;;
9771;SDS011;4925;52.588;13.370;2022-09-30T08:17:00;8.63;;;7.00;;
9771;SDS011;4925;52.588;13.370;2022-09-30T08:19:26;9.43;;;6.50;;
9771;SDS011;4925;52.588;13.370;2022-09-30T08:21:53;9.47;;;7.27;;
9771;SDS011;4925;52.588;13.370;2022-09-30T08:24:20;9.10;;;6.70;;
9771;SDS011;4925;52.588;13.370;2022-09-30T08:26:47;7.97;;;6.43;;
9771;SDS011;4925;52.588;13.370;2022-09-30T08:29:12;11.33;;;6.97;;
9771;SDS011;4925;52.588;13.370;2022-09-30T08:31:38;11.87;;;6.90;;
9771;SDS011;4925;52.588;13.370;2022-09-30T08:34:05;8.20;;;6.50;;
9771;SDS011;4925;52.588;13.370;2022-09-30T08:36:31;7.80;;;6.10;;
9771;SDS011;4925;52.588;13.370;2022-09-30T08:38:56;9.67;;;7.43;;
9771;SDS011;4925;52.588;13.370;2022-09-30T08:52:58;13.17;;;6.67;;
9771;SDS011;4925;52.588;13.370;2022-09-30T08:55:35;8.17;;;6.60;;
9771;SDS011;4925;52.588;13.370;2022-09-30T08:58:04;16.53;;;6.37;;
9771;SDS011;4925;52.588;13.370;2022-09-30T09:00:38;7.70;;;6.83;;
9771;SDS011;4925;52.588;13.370;2022-09-30T09:03:08;10.17;;;6.57;;
9771;SDS011;4925;52.588;13.370;2022-09-30T09:10:39;7.80;;;6.50;;
9771;SDS011;4925;52.588;13.370;2022-09-30T09:18:37;10.17;;;6.60;;
9771;SDS011;4925;52.588;13.370;2022-09-30T09:21:20;9.60;;;6.20;;
9771;SDS011;4925;52.588;13.370;2022-09-30T09:24:49;9.57;;;6.33;;
9771;SDS011;4925;52.588;13.370;2022-09-30T09:27:11;8.80;;;6.30;;
9771;SDS011;4925;52.588;13.370;2022-09-30T09:30:08;8.80;;;6.60;;
9771;SDS011;4925;52.588;13.370;2022-09-30T09:32:36;47.47;;;34.27;;
9771;SDS011;4925;52.588;13.370;2022-09-30T09:35:13;82.30;;;50.90;;
9771;SDS011;4925;52.588;13.370;2022-09-30T09:37:47;12.67;;;10.40;;
9771;SDS011;4925;52.588;13.370;2022-09-30T09:48:46;8.10;;;6.37;;
9771;SDS011;4925;52.588;13.370;2022-09-30T09:51:32;6.77;;;5.83;;
9771;SDS011;4925;52.588;13.370;2022-09-30T09:54:00;6.67;;;5.90;;
9771;SDS011;4925;52.588;13.370;2022-09-30T09:56:28;7.63;;;5.07;;
9771;SDS011;4925;52.588;13.370;2022-09-30T09:59:13;7.50;;;5.50;;
9771;SDS011;4925;52.588;13.370;2022-09-30T10:01:41;6.10;;;5.50;;
9771;SDS011;4925;52.588;13.370;2022-09-30T10:06:41;8.17;;;6.17;;
9771;SDS011;4925;52.588;13.370;2022-09-30T10:09:34;7.53;;;5.67;;
9771;SDS011;4925;52.588;13.370;2022-09-30T10:14:30;6.30;;;4.50;;
9771;SDS011;4925;52.588;13.370;2022-09-30T10:17:19;7.27;;;5.00;;
9771;SDS011;4925;52.588;13.370;2022-09-30T10:19:54;6.47;;;4.90;;
9771;SDS011;4925;52.588;13.370;2022-09-30T10:22:31;5.53;;;4.53;;
9771;SDS011;4925;52.588;13.370;2022-09-30T10:25:08;5.33;;;4.60;;
9771;SDS011;4925;52.588;13.370;2022-09-30T10:30:34;5.57;;;4.60;;
9771;SDS011;4925;52.588;13.370;2022-09-30T10:33:03;8.33;;;4.27;;
9771;SDS011;4925;52.588;13.370;2022-09-30T10:38:44;3.97;;;3.57;;
9771;SDS011;4925;52.588;13.370;2022-09-30T10:41:25;4.03;;;3.63;;
9771;SDS011;4925;52.588;13.370;2022-09-30T10:43:55;4.33;;;2.67;;
9771;SDS011;4925;52.588;13.370;2022-09-30T10:46:25;6.03;;;3.73;;
9771;SDS011;4925;52.588;13.370;2022-09-30T10:48:54;5.50;;;3.20;;
9771;SDS011;4925;52.588;13.370;2022-09-30T10:51:31;3.93;;;2.87;;
9771;SDS011;4925;52.588;13.370;2022-09-30T10:53:59;3.67;;;2.77;;
9771;SDS011;4925;52.588;13.370;2022-09-30T10:56:35;5.43;;;3.63;;
9771;SDS011;4925;52.588;13.370;2022-09-30T10:59:09;4.00;;;3.40;;
9771;SDS011;4925;52.588;13.370;2022-09-30T11:01:51;5.27;;;2.90;;
9771;SDS011;4925;52.588;13.370;2022-09-30T11:06:53;5.33;;;3.27;;
9771;SDS011;4925;52.588;13.370;2022-09-30T11:13:22;3.50;;;3.20;;
9771;SDS011;4925;52.588;13.370;2022-09-30T11:40:55;2.80;;;2.60;;
9771;SDS011;4925;52.588;13.370;2022-09-30T11:46:39;2.50;;;2.30;;
9771;SDS011;4925;52.588;13.370;2022-09-30T11:54:45;7.10;;;2.65;;
9771;SDS011;4925;52.588;13.370;2022-09-30T12:00:13;3.03;;;2.55;;
9771;SDS011;4925;52.588;13.370;2022-09-30T12:02:42;3.63;;;2.40;;
9771;SDS011;4925;52.588;13.370;2022-09-30T12:10:44;3.55;;;2.70;;
9771;SDS011;4925;52.588;13.370;2022-09-30T12:13:17;3.60;;;2.88;;
9771;SDS011;4925;52.588;13.370;2022-09-30T12:15:47;2.50;;;2.30;;
9771;SDS011;4925;52.588;13.370;2022-09-30T12:18:19;2.85;;;2.33;;
9771;SDS011;4925;52.588;13.370;2022-09-30T12:23:48;3.13;;;1.88;;
9771;SDS011;4925;52.588;13.370;2022-09-30T12:26:29;2.97;;;1.88;;
9771;SDS011;4925;52.588;13.370;2022-09-30T12:28:56;3.58;;;1.90;;
9771;SDS011;4925;52.588;13.370;2022-09-30T12:48:21;4.32;;;1.58;;
9771;SDS011;4925;52.588;13.370;2022-09-30T12:50:52;1.40;;;1.10;;
9771;SDS011;4925;52.588;13.370;2022-09-30T12:53:29;1.02;;;1.02;;
9771;SDS011;4925;52.588;13.370;2022-09-30T12:56:11;1.38;;;1.00;;
9771;SDS011;4925;52.588;13.370;2022-09-30T12:58:57;3.17;;;0.90;;
9771;SDS011;4925;52.588;13.370;2022-09-30T13:01:26;2.38;;;1.20;;
9771;SDS011;4925;52.588;13.370;2022-09-30T13:06:26;1.55;;;1.20;;
9771;SDS011;4925;52.588;13.370;2022-09-30T13:14:13;1.88;;;1.40;;
9771;SDS011;4925;52.588;13.370;2022-09-30T13:19:32;1.67;;;1.10;;
9771;SDS011;4925;52.588;13.370;2022-09-30T13:32:37;1.58;;;1.40;;
9771;SDS011;4925;52.588;13.370;2022-09-30T13:40:54;2.08;;;1.13;;
9771;SDS011;4925;52.588;13.370;2022-09-30T13:43:37;1.15;;;1.00;;
9771;SDS011;4925;52.588;13.370;2022-09-30T13:46:45;1.10;;;1.10;;
9771;SDS011;4925;52.588;13.370;2022-09-30T13:50:01;3.00;;;1.33;;
9771;SDS011;4925;52.588;13.370;2022-09-30T13:52:17;6.47;;;1.40;;
9771;SDS011;4925;52.588;13.370;2022-09-30T13:54:46;1.83;;;1.20;;
9771;SDS011;4925;52.588;13.370;2022-09-30T13:57:16;1.55;;;1.42;;
9771;SDS011;4925;52.588;13.370;2022-09-30T13:59:50;1.65;;;1.13;;
9771;SDS011;4925;52.588;13.370;2022-09-30T14:10:58;1.92;;;1.25;;
9771;SDS011;4925;52.588;13.370;2022-09-30T14:13:39;3.17;;;1.40;;
9771;SDS011;4925;52.588;13.370;2022-09-30T14:16:09;1.17;;;1.10;;
9771;SDS011;4925;52.588;13.370;2022-09-30T14:22:03;3.00;;;1.50;;
9771;SDS011;4925;52.588;13.370;2022-09-30T14:24:34;1.90;;;1.47;;
9771;SDS011;4925;52.588;13.370;2022-09-30T14:29:59;4.63;;;2.90;;
9771;SDS011;4925;52.588;13.370;2022-09-30T14:32:56;2.38;;;1.50;;
9771;SDS011;4925;52.588;13.370;2022-09-30T14:35:26;1.67;;;1.58;;
9771;SDS011;4925;52.588;13.370;2022-09-30T14:37:58;1.90;;;1.30;;
9771;SDS011;4925;52.588;13.370;2022-09-30T14:40:32;1.05;;;0.98;;
9771;SDS011;4925;52.588;13.370;2022-09-30T14:43:01;2.20;;;0.93;;
9771;SDS011;4925;52.588;13.370;2022-09-30T14:45:33;1.75;;;1.20;;
9771;SDS011;4925;52.588;13.370;2022-09-30T14:48:35;1.58;;;1.00;;
9771;SDS011;4925;52.588;13.370;2022-09-30T14:53:37;1.10;;;1.08;;
9771;SDS011;4925;52.588;13.370;2022-09-30T14:56:21;2.42;;;1.00;;
9771;SDS011;4925;52.588;13.370;2022-09-30T14:58:52;1.77;;;1.15;;
9771;SDS011;4925;52.588;13.370;2022-09-30T15:01:21;1.10;;;1.00;;
9771;SDS011;4925;52.588;13.370;2022-09-30T15:03:51;1.80;;;1.23;;
9771;SDS011;4925;52.588;13.370;2022-09-30T15:06:24;1.17;;;1.10;;
9771;SDS011;4925;52.588;13.370;2022-09-30T15:08:59;0.98;;;0.90;;
9771;SDS011;4925;52.588;13.370;2022-09-30T15:11:30;5.77;;;2.83;;
9771;SDS011;4925;52.588;13.370;2022-09-30T15:16:50;3.43;;;1.50;;
9771;SDS011;4925;52.588;13.370;2022-09-30T15:19:24;1.00;;;1.00;;
9771;SDS011;4925;52.588;13.370;2022-09-30T15:21:54;2.33;;;1.00;;
9771;SDS011;4925;52.588;13.370;2022-09-30T15:24:23;2.63;;;0.97;;
9771;SDS011;4925;52.588;13.370;2022-09-30T15:26:51;1.83;;;1.40;;
9771;SDS011;4925;52.588;13.370;2022-09-30T15:29:19;1.43;;;1.30;;
9771;SDS011;4925;52.588;13.370;2022-09-30T15:31:46;2.33;;;1.20;;
9771;SDS011;4925;52.588;13.370;2022-09-30T15:34:18;2.27;;;1.00;;
9771;SDS011;4925;52.588;13.370;2022-09-30T15:36:46;2.80;;;1.13;;
9771;SDS011;4925;52.588;13.370;2022-09-30T15:39:23;1.33;;;1.23;;
9771;SDS011;4925;52.588;13.370;2022-09-30T15:42:26;3.40;;;1.63;;
9771;SDS011;4925;52.588;13.370;2022-09-30T15:45:01;1.40;;;1.30;;
9771;SDS011;4925;52.588;13.370;2022-09-30T15:47:52;3.17;;;1.97;;
9771;SDS011;4925;52.588;13.370;2022-09-30T15:50:44;2.60;;;1.83;;
9771;SDS011;4925;52.588;13.370;2022-09-30T15:53:17;1.47;;;1.37;;
9771;SDS011;4925;52.588;13.370;2022-09-30T15:55:46;1.53;;;1.40;;
9771;SDS011;4925;52.588;13.370;2022-09-30T16:03:48;3.00;;;1.30;;
9771;SDS011;4925;52.588;13.370;2022-09-30T16:06:24;2.37;;;1.33;;
9771;SDS011;4925;52.588;13.370;2022-09-30T16:08:57;6.20;;;1.90;;
9771;SDS011;4925;52.588;13.370;2022-09-30T16:11:35;1.63;;;0.97;;
9771;SDS011;4925;52.588;13.370;2022-09-30T16:14:15;2.33;;;1.50;;
9771;SDS011;4925;52.588;13.370;2022-09-30T16:16:52;3.80;;;1.93;;
9771;SDS011;4925;52.588;13.370;2022-09-30T16:19:19;1.87;;;1.47;;
9771;SDS011;4925;52.588;13.370;2022-09-30T16:21:48;1.73;;;1.43;;
9771;SDS011;4925;52.588;13.370;2022-09-30T16:26:50;2.23;;;1.63;;
9771;SDS011;4925;52.588;13.370;2022-09-30T16:29:17;1.97;;;1.57;;
9771;SDS011;4925;52.588;13.370;2022-09-30T16:31:43;2.40;;;1.67;;
9771;SDS011;4925;52.588;13.370;2022-09-30T16:34:32;2.40;;;1.93;;
9771;SDS011;4925;52.588;13.370;2022-09-30T16:37:08;2.17;;;1.87;;
9771;SDS011;4925;52.588;13.370;2022-09-30T16:39:36;1.43;;;1.33;;
9771;SDS011;4925;52.588;13.370;2022-09-30T16:42:01;3.07;;;2.40;;
9771;SDS011;4925;52.588;13.370;2022-09-30T16:44:28;2.43;;;2.23;;
9771;SDS011;4925;52.588;13.370;2022-09-30T16:46:58;2.27;;;2.10;;
9771;SDS011;4925;52.588;13.370;2022-09-30T16:49:24;2.73;;;2.50;;
9771;SDS011;4925;52.588;13.370;2022-09-30T16:51:50;6.27;;;3.00;;
9771;SDS011;4925;52.588;13.370;2022-09-30T16:54:15;6.20;;;2.97;;
9771;SDS011;4925;52.588;13.370;2022-09-30T16:56:41;7.33;;;3.97;;
9771;SDS011;4925;52.588;13.370;2022-09-30T16:59:12;6.93;;;3.90;;
9771;SDS011;4925;52.588;13.370;2022-09-30T17:01:39;8.97;;;3.40;;
9771;SDS011;4925;52.588;13.370;2022-09-30T17:04:05;5.57;;;3.50;;
9771;SDS011;4925;52.588;13.370;2022-09-30T17:06:31;8.70;;;3.33;;
9771;SDS011;4925;52.588;13.370;2022-09-30T17:08:57;4.03;;;3.23;;
9771;SDS011;4925;52.588;13.370;2022-09-30T17:11:27;7.27;;;3.70;;
9771;SDS011;4925;52.588;13.370;2022-09-30T17:13:55;5.00;;;3.57;;
9771;SDS011;4925;52.588;13.370;2022-09-30T17:16:21;4.93;;;3.40;;
9771;SDS011;4925;52.588;13.370;2022-09-30T17:18:48;6.00;;;3.60;;
9771;SDS011;4925;52.588;13.370;2022-09-30T17:21:18;6.27;;;3.97;;
9771;SDS011;4925;52.588;13.370;2022-09-30T17:23:44;5.60;;;3.73;;
9771;SDS011;4925;52.588;13.370;2022-09-30T17:26:10;9.13;;;4.40;;
9771;SDS011;4925;52.588;13.370;2022-09-30T17:28:36;6.30;;;4.10;;
9771;SDS011;4925;52.588;13.370;2022-09-30T17:31:02;5.73;;;3.87;;
9771;SDS011;4925;52.588;13.370;2022-09-30T17:33:31;5.57;;;3.90;;
9771;SDS011;4925;52.588;13.370;2022-09-30T17:36:09;5.97;;;4.03;;
9771;SDS011;4925;52.588;13.370;2022-09-30T17:38:36;7.97;;;4.13;;
9771;SDS011;4925;52.588;13.370;2022-09-30T17:41:02;5.40;;;4.33;;
9771;SDS011;4925;52.588;13.370;2022-09-30T17:43:47;5.33;;;3.97;;
9771;SDS011;4925;52.588;13.370;2022-09-30T17:46:14;8.23;;;4.90;;
9771;SDS011;4925;52.588;13.370;2022-09-30T17:48:43;4.80;;;3.93;;
9771;SDS011;4925;52.588;13.370;2022-09-30T17:51:10;4.90;;;3.73;;
9771;SDS011;4925;52.588;13.370;2022-09-30T17:53:36;4.63;;;3.40;;
9771;SDS011;4925;52.588;13.370;2022-09-30T17:56:03;9.30;;;3.90;;
9771;SDS011;4925;52.588;13.370;2022-09-30T17:58:36;7.37;;;4.60;;
9771;SDS011;4925;52.588;13.370;2022-09-30T18:01:05;7.00;;;4.70;;
9771;SDS011;4925;52.588;13.370;2022-09-30T18:03:31;5.53;;;4.13;;
9771;SDS011;4925;52.588;13.370;2022-09-30T18:05:57;9.77;;;4.47;;
9771;SDS011;4925;52.588;13.370;2022-09-30T18:08:24;8.00;;;4.23;;
9771;SDS011;4925;52.588;13.370;2022-09-30T18:10:50;4.57;;;4.03;;
9771;SDS011;4925;52.588;13.370;2022-09-30T18:13:17;5.47;;;4.27;;
9771;SDS011;4925;52.588;13.370;2022-09-30T18:15:45;6.57;;;4.57;;
9771;SDS011;4925;52.588;13.370;2022-09-30T18:18:11;8.60;;;4.60;;
9771;SDS011;4925;52.588;13.370;2022-09-30T18:20:46;6.03;;;4.33;;
9771;SDS011;4925;52.588;13.370;2022-09-30T18:23:14;7.47;;;5.13;;
9771;SDS011;4925;52.588;13.370;2022-09-30T18:25:42;7.83;;;5.03;;
9771;SDS011;4925;52.588;13.370;2022-09-30T18:28:09;11.63;;;5.37;;
9771;SDS011;4925;52.588;13.370;2022-09-30T18:30:36;10.90;;;5.47;;
9771;SDS011;4925;52.588;13.370;2022-09-30T18:33:03;8.13;;;4.70;;